Time;durP1;ratioP1;P1;durP2;ratioP2;P2;SDS_P1;SDS_P2;PMS_P1;PMS_P2;Temp;Humidity;BMP_temperature;BMP_pressure;BME280_temperature;BME280_humidity;BME280_pressure;Samples;Min_cycle;Max_cycle;Signal;HPM_P1;HPM_P2
2024/01/09 00:00:56;;;;;;;2.40;2.30;;;;;;;-2.16;77.78;101076.19;4932345;28;20474;-71
2024/01/09 00:03:22;;;;;;;2.40;2.30;;;;;;;-2.27;78.13;101061.91;4949731;29;20559;-70
2024/01/09 00:05:47;;;;;;;2.30;2.20;;;;;;;-2.16;77.85;101081.41;4937820;29;20103;-70
2024/01/09 00:08:12;;;;;;;2.35;2.25;;;;;;;-2.16;78.23;101084.00;4948180;29;20543;-70
2024/01/09 00:10:38;;;;;;;2.15;2.05;;;;;;;-2.12;78.93;101088.47;4946063;28;20034;-71
2024/01/09 00:13:04;;;;;;;2.30;2.20;;;;;;;-2.24;77.86;101068.09;4961945;28;20031;-70
2024/01/09 00:15:30;;;;;;;2.30;2.20;;;;;;;-2.67;78.72;100998.81;4931477;29;20035;-71
2024/01/09 00:17:56;;;;;;;2.30;2.20;;;;;;;-2.13;79.19;101094.53;4948357;29;20488;-70
2024/01/09 00:20:21;;;;;;;2.20;2.10;;;;;;;-2.20;78.22;101095.16;4944994;28;20035;-70
2024/01/09 00:22:47;;;;;;;2.20;2.10;;;;;;;-2.26;78.35;101089.72;4916021;29;20038;-70
2024/01/09 00:25:15;;;;;;;2.20;2.10;;;;;;;-2.27;78.57;101093.19;4941774;28;20027;-70
2024/01/09 00:27:41;;;;;;;2.20;2.10;;;;;;;-2.26;78.41;101092.34;4948904;28;20031;-70
2024/01/09 00:30:07;;;;;;;2.10;2.00;;;;;;;-2.33;77.66;101096.44;4949479;29;20054;-70
2024/01/09 00:32:33;;;;;;;2.40;2.30;;;;;;;-2.39;77.05;101097.94;4944583;29;20057;-69
2024/01/09 00:34:59;;;;;;;2.30;2.20;;;;;;;-2.69;76.78;101045.63;4937055;29;20492;-70
2024/01/09 00:37:24;;;;;;;2.30;2.20;;;;;;;-2.39;77.35;101095.34;4938871;29;20034;-70
2024/01/09 00:39:53;;;;;;;2.40;2.30;;;;;;;-2.43;76.91;101085.63;4959323;28;20035;-70
2024/01/09 00:42:18;;;;;;;2.25;2.15;;;;;;;-2.40;77.51;101097.03;4955571;28;20047;-70
2024/01/09 00:44:44;;;;;;;2.30;2.20;;;;;;;-2.44;76.62;101086.47;4949158;28;20101;-70
2024/01/09 00:47:10;;;;;;;2.20;2.10;;;;;;;-2.47;76.92;101088.97;4949105;29;20110;-69
2024/01/09 00:49:35;;;;;;;2.20;2.10;;;;;;;-2.43;77.33;101090.84;4933516;29;20019;-71
2024/01/09 00:52:02;;;;;;;2.17;2.08;;;;;;;-2.44;77.23;101089.06;4948755;29;20030;-68
2024/01/09 00:54:27;;;;;;;2.42;2.33;;;;;;;-2.50;77.29;101084.53;4949714;29;20023;-69
2024/01/09 00:56:53;;;;;;;2.22;2.13;;;;;;;-2.48;77.48;101084.56;4944468;28;20054;-69
2024/01/09 00:59:18;;;;;;;2.50;2.40;;;;;;;-2.56;77.15;101088.63;4969796;28;20031;-69
2024/01/09 01:01:51;;;;;;;2.30;2.20;;;;;;;-2.59;76.73;101088.50;4958041;28;20795;-69
2024/01/09 01:04:17;;;;;;;2.50;2.40;;;;;;;-2.56;76.70;101091.22;4966972;28;20058;-69
2024/01/09 01:06:45;;;;;;;2.30;2.20;;;;;;;-2.62;76.43;101098.81;4964480;28;20603;-69
2024/01/09 01:09:10;;;;;;;2.30;2.20;;;;;;;-2.57;76.82;101107.69;4962947;28;20035;-70
2024/01/09 01:11:37;;;;;;;2.25;2.15;;;;;;;-2.61;76.02;101104.09;4946178;28;20494;-69
2024/01/09 01:14:02;;;;;;;2.30;2.20;;;;;;;-2.60;76.82;101097.16;4968182;28;20053;-69
2024/01/09 01:16:28;;;;;;;2.30;2.20;;;;;;;-2.64;76.88;101103.06;4949695;28;20023;-71
2024/01/09 01:18:53;;;;;;;2.20;2.10;;;;;;;-2.65;76.18;101119.53;4968810;28;20403;-71
2024/01/09 01:21:19;;;;;;;2.20;2.10;;;;;;;-2.67;75.84;101115.16;4966595;28;20717;-70
2024/01/09 01:23:44;;;;;;;2.30;2.20;;;;;;;-2.63;75.41;101113.53;4968171;28;20031;-70
2024/01/09 01:26:10;;;;;;;2.20;2.10;;;;;;;-2.67;76.37;101122.09;4966034;28;20023;-71
2024/01/09 01:28:35;;;;;;;2.30;2.20;;;;;;;-2.97;76.43;101084.50;4968283;28;20632;-72
2024/01/09 01:31:02;;;;;;;2.30;2.20;;;;;;;-2.71;75.68;101118.47;4968349;28;20030;-67
2024/01/09 01:33:28;;;;;;;2.30;2.20;;;;;;;-2.64;76.89;101116.09;4968458;28;20128;-68
2024/01/09 01:35:53;;;;;;;2.10;2.00;;;;;;;-2.68;76.31;101120.28;4966601;28;20502;-68
2024/01/09 01:38:18;;;;;;;2.30;2.20;;;;;;;-2.73;75.81;101116.63;4961258;28;20057;-68
2024/01/09 01:40:44;;;;;;;2.30;2.20;;;;;;;-2.67;76.04;101121.19;4948465;28;20042;-68
2024/01/09 01:43:09;;;;;;;2.30;2.20;;;;;;;-2.68;76.13;101114.22;4965066;28;20486;-68
2024/01/09 01:45:35;;;;;;;2.30;2.20;;;;;;;-2.68;75.11;101119.44;4979955;28;20037;-68
2024/01/09 01:48:01;;;;;;;2.20;2.10;;;;;;;-2.86;76.28;101078.84;4973217;28;20038;-67
2024/01/09 01:50:28;;;;;;;2.17;2.08;;;;;;;-2.67;75.75;101122.97;4966584;28;20109;-68
2024/01/09 01:52:54;;;;;;;2.40;2.30;;;;;;;-2.70;75.37;101117.63;4966162;28;20023;-68
2024/01/09 01:55:24;;;;;;;2.22;2.13;;;;;;;-2.72;75.70;101116.69;4956165;28;20035;-73
2024/01/09 01:57:53;;;;;;;2.40;2.30;;;;;;;-2.74;76.51;101117.47;4953874;28;20043;-71
2024/01/09 02:00:37;;;;;;;2.38;2.28;;;;;;;-2.77;75.93;101119.97;4957545;28;20042;-70
2024/01/09 02:03:03;;;;;;;2.38;2.28;;;;;;;-2.75;76.07;101111.38;4959812;28;20027;-70
2024/01/09 02:05:31;;;;;;;2.10;2.00;;;;;;;-2.76;75.20;101122.63;4968149;28;20078;-71
2024/01/09 02:07:57;;;;;;;2.10;2.00;;;;;;;-2.81;75.58;101124.16;4966809;28;20593;-70
2024/01/09 02:10:23;;;;;;;2.35;2.25;;;;;;;-3.13;75.68;101067.38;4965808;28;20113;-69
2024/01/09 02:12:49;;;;;;;2.40;2.30;;;;;;;-2.78;75.83;101118.19;4967676;28;20186;-70
2024/01/09 02:15:15;;;;;;;2.30;2.20;;;;;;;-2.85;75.41;101101.44;4960599;28;20035;-70
2024/01/09 02:17:41;;;;;;;2.20;2.10;;;;;;;-2.76;75.34;101117.41;4955964;28;20038;-70
2024/01/09 02:20:07;;;;;;;2.20;2.10;;;;;;;-2.80;76.19;101120.72;4966567;28;20039;-69
2024/01/09 02:22:33;;;;;;;2.30;2.20;;;;;;;-2.79;76.04;101119.91;4966624;28;20030;-69
2024/01/09 02:24:58;;;;;;;2.30;2.20;;;;;;;-2.82;75.43;101119.78;4956786;28;20586;-69
2024/01/09 02:27:49;;;;;;;2.10;2.00;;;;;;;-2.83;75.51;101115.41;4949413;28;20122;-69
2024/01/09 02:30:15;;;;;;;2.40;2.30;;;;;;;-2.83;75.37;101115.41;4952769;28;20022;-69
2024/01/09 02:32:42;;;;;;;2.30;2.20;;;;;;;-2.80;76.08;101117.25;4960770;28;20038;-69
2024/01/09 02:35:08;;;;;;;2.50;2.40;;;;;;;-3.14;75.20;101070.84;4975081;28;20888;-65
2024/01/09 02:37:33;;;;;;;2.40;2.30;;;;;;;-2.82;75.96;101117.16;4964562;28;20034;-64
2024/01/09 02:40:03;;;;;;;2.00;1.90;;;;;;;-2.86;74.67;101114.41;4970967;28;20109;-64
2024/01/09 02:42:28;;;;;;;2.30;2.20;;;;;;;-2.85;74.43;101111.84;4971227;28;20030;-64
2024/01/09 02:44:54;;;;;;;2.30;2.20;;;;;;;-2.86;74.71;101112.69;4936936;29;20031;-64
2024/01/09 02:47:21;;;;;;;2.38;2.28;;;;;;;-2.86;74.30;101112.69;4956954;28;20062;-63
2024/01/09 02:49:46;;;;;;;2.10;2.00;;;;;;;-2.92;74.00;101109.88;4979940;28;20030;-65
2024/01/09 02:52:12;;;;;;;2.30;2.20;;;;;;;-2.92;74.09;101107.25;4985706;28;20019;-64
2024/01/09 02:54:37;;;;;;;2.20;2.10;;;;;;;-2.96;74.56;101107.97;4983573;28;20458;-65
2024/01/09 02:57:03;;;;;;;2.25;2.15;;;;;;;-2.93;74.92;101108.06;4955832;28;20055;-64
2024/01/09 02:59:28;;;;;;;2.30;2.20;;;;;;;-2.89;74.91;101103.88;4971017;28;20030;-64
2024/01/09 03:01:54;;;;;;;2.30;2.20;;;;;;;-2.92;75.88;101094.25;4953086;28;20394;-64
2024/01/09 03:04:19;;;;;;;2.30;2.20;;;;;;;-2.90;74.77;101102.97;4975664;28;20034;-64
2024/01/09 03:06:45;;;;;;;2.35;2.25;;;;;;;-2.98;75.02;101103.50;4960396;28;20030;-64
2024/01/09 03:09:11;;;;;;;2.20;2.10;;;;;;;-3.01;75.04;101093.88;4971218;28;20077;-63
2024/01/09 03:11:37;;;;;;;2.30;2.20;;;;;;;-2.95;74.67;101119.28;4972837;28;20768;-64
2024/01/09 03:14:02;;;;;;;2.45;2.35;;;;;;;-3.01;75.26;101104.28;4952890;28;20035;-64
2024/01/09 03:16:27;;;;;;;2.30;2.20;;;;;;;-3.01;75.74;101098.19;4967053;28;20035;-63
2024/01/09 03:18:53;;;;;;;2.10;2.00;;;;;;;-3.04;74.45;101101.59;4969936;28;20038;-64
2024/01/09 03:21:18;;;;;;;2.40;2.30;;;;;;;-2.98;75.08;101096.59;4962787;28;20027;-63
2024/01/09 03:23:44;;;;;;;2.30;2.20;;;;;;;-2.99;75.58;101097.44;4953339;28;20031;-63
2024/01/09 03:26:09;;;;;;;2.38;2.28;;;;;;;-2.96;75.86;101099.25;4957281;28;20075;-63
2024/01/09 03:28:36;;;;;;;2.20;2.10;;;;;;;-3.09;75.68;101095.31;4967993;28;20030;-64
2024/01/09 03:31:02;;;;;;;2.30;2.20;;;;;;;-2.99;75.33;101092.25;4965900;28;20038;-63
2024/01/09 03:33:28;;;;;;;2.30;2.20;;;;;;;-3.00;74.96;101089.56;4966774;28;20023;-64
2024/01/09 03:35:53;;;;;;;2.25;2.15;;;;;;;-2.99;74.53;101100.03;4966135;28;20502;-63
2024/01/09 03:38:19;;;;;;;2.20;2.10;;;;;;;-3.04;74.65;101093.78;4971813;28;20114;-63
2024/01/09 03:40:45;;;;;;;2.40;2.30;;;;;;;-2.97;74.37;101093.19;4958779;28;20082;-62
2024/01/09 03:43:11;;;;;;;2.30;2.20;;;;;;;-3.09;74.11;101090.09;4961994;28;20030;-63
2024/01/09 03:45:36;;;;;;;2.25;2.15;;;;;;;-3.07;74.11;101091.06;4968007;28;20086;-63
2024/01/09 03:48:02;;;;;;;2.30;2.20;;;;;;;-3.06;74.00;101095.44;4968658;28;20093;-62
2024/01/09 03:50:27;;;;;;;2.40;2.30;;;;;;;-3.02;74.39;101096.44;4951095;28;20090;-63
2024/01/09 03:52:53;;;;;;;2.28;2.17;;;;;;;-3.47;74.77;101025.31;4970270;28;20383;-63
2024/01/09 03:55:18;;;;;;;2.20;2.10;;;;;;;-3.03;73.91;101094.69;4964400;28;20049;-63
2024/01/09 03:57:44;;;;;;;2.30;2.20;;;;;;;-3.06;74.64;101089.31;4939035;29;20047;-64
2024/01/09 04:00:09;;;;;;;2.20;2.10;;;;;;;-3.09;75.16;101089.22;4949536;29;20041;-64
2024/01/09 04:02:35;;;;;;;2.20;2.10;;;;;;;-3.07;73.91;101092.75;4949862;29;20491;-64
2024/01/09 04:05:01;;;;;;;2.20;2.10;;;;;;;-3.09;74.65;101084.91;4950780;29;20054;-62
2024/01/09 04:07:27;;;;;;;2.40;2.30;;;;;;;-3.06;73.72;101085.00;4941823;29;20035;-63
2024/01/09 04:09:52;;;;;;;2.30;2.20;;;;;;;-3.06;74.86;101090.22;4949733;29;20416;-63
2024/01/09 04:12:18;;;;;;;2.30;2.20;;;;;;;-3.06;74.32;101079.81;4931178;29;20138;-63
2024/01/09 04:14:43;;;;;;;2.40;2.30;;;;;;;-3.02;74.51;101088.63;4949860;29;20098;-64
2024/01/09 04:17:09;;;;;;;2.40;2.30;;;;;;;-3.05;73.91;101091.13;4949948;29;20034;-63
2024/01/09 04:19:38;;;;;;;2.22;2.13;;;;;;;-3.08;74.33;101086.66;4949555;29;20116;-63
2024/01/09 04:22:04;;;;;;;2.30;2.20;;;;;;;-3.08;73.56;101086.66;4951363;29;20050;-62
2024/01/09 04:24:29;;;;;;;2.45;2.35;;;;;;;-3.08;73.56;101088.41;4952342;28;20035;-63
2024/01/09 04:26:55;;;;;;;2.40;2.30;;;;;;;-3.11;74.41;101086.56;4949676;28;20031;-64
2024/01/09 04:29:20;;;;;;;2.50;2.40;;;;;;;-3.12;73.34;101092.59;4949199;29;20038;-63
2024/01/09 04:31:46;;;;;;;2.30;2.20;;;;;;;-3.13;73.43;101080.41;4945072;29;20546;-64
2024/01/09 04:34:11;;;;;;;2.40;2.30;;;;;;;-3.08;73.21;101088.41;4948447;28;20031;-63
2024/01/09 04:36:36;;;;;;;2.40;2.30;;;;;;;-3.03;73.77;101081.66;4968639;28;20043;-64
2024/01/09 04:39:02;;;;;;;2.40;2.30;;;;;;;-3.04;74.42;101088.56;4959527;28;20114;-64
2024/01/09 04:41:27;;;;;;;2.28;2.17;;;;;;;-3.11;72.91;101093.47;4951868;28;20082;-63
2024/01/09 04:43:53;;;;;;;2.30;2.20;;;;;;;-3.07;73.15;101087.56;4948077;29;20041;-64
2024/01/09 04:46:18;;;;;;;2.50;2.40;;;;;;;-3.12;73.40;101084.78;4930986;29;20042;-63
2024/01/09 04:48:44;;;;;;;2.40;2.30;;;;;;;-3.07;73.32;101085.84;4935429;29;20038;-63
2024/01/09 04:51:09;;;;;;;2.30;2.20;;;;;;;-3.09;72.43;101090.09;4949367;29;20674;-63
2024/01/09 04:53:35;;;;;;;2.33;2.22;;;;;;;-3.07;72.63;101083.25;4928855;29;20027;-64
2024/01/09 04:56:00;;;;;;;2.40;2.30;;;;;;;-3.07;73.09;101084.97;4942976;28;20052;-63
2024/01/09 04:58:25;;;;;;;2.30;2.20;;;;;;;-3.07;72.26;101083.25;4949294;29;20043;-63
2024/01/09 05:00:51;;;;;;;2.30;2.20;;;;;;;-3.17;71.64;101083.72;4947952;28;20610;-64
2024/01/09 05:03:17;;;;;;;2.40;2.30;;;;;;;-3.12;71.67;101084.78;4944115;29;20066;-62
2024/01/09 05:05:43;;;;;;;2.30;2.20;;;;;;;-3.12;72.47;101084.78;4922567;29;20031;-63
2024/01/09 05:08:08;;;;;;;2.47;2.38;;;;;;;-3.13;71.75;101088.19;4948356;29;20146;-64
2024/01/09 05:10:33;;;;;;;2.30;2.20;;;;;;;-3.12;72.74;101083.91;4948372;28;20111;-63
2024/01/09 05:12:59;;;;;;;2.50;2.40;;;;;;;-3.52;72.88;101028.53;4947194;28;20110;-64
2024/01/09 05:15:24;;;;;;;2.30;2.20;;;;;;;-3.18;72.94;101084.53;4948928;28;20046;-64
2024/01/09 05:17:50;;;;;;;2.20;2.10;;;;;;;-3.18;73.67;101084.53;4944486;29;20776;-63
2024/01/09 05:20:16;;;;;;;2.40;2.30;;;;;;;-3.19;73.18;101092.28;4949311;29;20090;-63
2024/01/09 05:22:42;;;;;;;2.20;2.10;;;;;;;-3.22;73.00;101080.06;4950133;29;20691;-64
2024/01/09 05:25:08;;;;;;;2.40;2.30;;;;;;;-3.44;72.97;101037.56;4945216;28;20106;-63
2024/01/09 05:27:33;;;;;;;2.22;2.13;;;;;;;-3.19;72.29;101077.56;4940350;29;20118;-64
2024/01/09 05:29:59;;;;;;;2.40;2.30;;;;;;;-3.20;72.07;101080.13;4950013;29;20114;-64
2024/01/09 05:32:25;;;;;;;2.40;2.30;;;;;;;-3.22;72.27;101086.97;4941579;29;20606;-63
2024/01/09 05:34:50;;;;;;;2.60;2.50;;;;;;;-3.18;71.52;101081.06;4936511;29;20031;-64
2024/01/09 05:37:16;;;;;;;2.30;2.20;;;;;;;-3.75;71.98;101005.94;4944097;29;20654;-64
2024/01/09 05:39:47;;;;;;;2.30;2.20;;;;;;;-3.24;71.31;101079.09;4934122;28;20042;-63
2024/01/09 05:42:13;;;;;;;2.20;2.10;;;;;;;-3.22;71.34;101085.25;4964395;28;20019;-62
2024/01/09 05:44:39;;;;;;;2.50;2.40;;;;;;;-3.30;71.67;101078.88;4920685;29;20023;-64
2024/01/09 05:47:04;;;;;;;2.22;2.13;;;;;;;-3.31;72.30;101077.09;4938979;29;20114;-62
2024/01/09 05:49:30;;;;;;;2.40;2.30;;;;;;;-3.29;72.45;101091.03;4929457;29;20031;-63
2024/01/09 05:51:55;;;;;;;2.45;2.35;;;;;;;-3.29;71.65;101103.16;4945005;29;20545;-64
2024/01/09 05:54:21;;;;;;;2.40;2.30;;;;;;;-3.33;71.74;101093.47;4948865;29;20094;-63
2024/01/09 05:56:46;;;;;;;2.33;2.22;;;;;;;-3.33;71.69;101093.47;4949038;28;20081;-63
2024/01/09 05:59:12;;;;;;;2.40;2.30;;;;;;;-3.27;72.13;101086.78;4968605;28;20667;-63
2024/01/09 06:01:38;;;;;;;2.50;2.40;;;;;;;-3.52;71.77;101055.44;4963578;28;20487;-63
2024/01/09 06:04:03;;;;;;;2.40;2.30;;;;;;;-3.27;71.63;101089.41;4967273;28;20041;-68
2024/01/09 06:06:29;;;;;;;2.50;2.40;;;;;;;-3.27;72.04;101094.59;4963754;28;20027;-68
2024/01/09 06:08:55;;;;;;;2.50;2.40;;;;;;;-3.59;71.53;101063.81;4966746;28;20031;-69
2024/01/09 06:11:20;;;;;;;2.40;2.30;;;;;;;-3.31;71.45;101097.88;4967384;28;20053;-69
2024/01/09 06:13:45;;;;;;;2.42;2.33;;;;;;;-3.26;71.77;101091.16;4956753;28;20530;-68
2024/01/09 06:16:11;;;;;;;2.40;2.30;;;;;;;-3.30;71.55;101099.69;4947629;28;20031;-68
2024/01/09 06:18:37;;;;;;;2.55;2.45;;;;;;;-3.26;71.69;101101.56;4969662;28;20109;-68
2024/01/09 06:21:03;;;;;;;2.20;2.10;;;;;;;-3.33;72.83;101096.97;4965638;28;20034;-68
2024/01/09 06:23:28;;;;;;;2.30;2.20;;;;;;;-3.48;71.64;101065.16;4968665;28;20037;-68
2024/01/09 06:25:53;;;;;;;2.50;2.40;;;;;;;-3.30;72.63;101102.28;4967902;28;20029;-68
2024/01/09 06:28:20;;;;;;;2.30;2.20;;;;;;;-3.36;71.80;101098.56;4944719;28;20483;-69
2024/01/09 06:30:45;;;;;;;2.60;2.50;;;;;;;-3.44;71.81;101094.75;4948700;29;20038;-68
2024/01/09 06:33:11;;;;;;;2.38;2.28;;;;;;;-3.35;73.51;101098.63;4958997;28;20031;-69
2024/01/09 06:35:36;;;;;;;2.22;2.13;;;;;;;-3.32;73.05;101105.63;4964847;28;20066;-67
2024/01/09 06:38:02;;;;;;;2.40;2.30;;;;;;;-3.78;72.04;101034.41;4962211;28;20030;-68
2024/01/09 06:40:27;;;;;;;2.60;2.50;;;;;;;-3.40;71.95;101097.53;4972562;28;20104;-69
2024/01/09 06:42:53;;;;;;;2.60;2.50;;;;;;;-3.37;72.91;101100.25;4961482;28;20035;-69
2024/01/09 06:45:18;;;;;;;2.60;2.50;;;;;;;-3.41;72.87;101100.09;4947765;28;20038;-68
2024/01/09 06:47:45;;;;;;;2.70;2.60;;;;;;;-3.39;71.62;101098.41;4952195;28;20129;-68
2024/01/09 06:50:10;;;;;;;2.50;2.40;;;;;;;-3.40;72.24;101107.94;4964593;28;20811;-68
2024/01/09 06:52:36;;;;;;;2.50;2.40;;;;;;;-3.38;71.12;101098.50;4967043;28;20030;-69
2024/01/09 06:55:03;;;;;;;2.42;2.33;;;;;;;-3.40;72.70;101102.75;4965962;28;20491;-68
2024/01/09 06:57:28;;;;;;;2.40;2.30;;;;;;;-3.72;71.80;101050.28;4978771;28;20108;-69
2024/01/09 06:59:54;;;;;;;2.40;2.30;;;;;;;-3.40;72.33;101115.75;4968075;28;20056;-67
2024/01/09 07:02:20;;;;;;;2.40;2.30;;;;;;;-3.43;73.01;101097.41;4966623;28;20114;-69
2024/01/09 07:04:46;;;;;;;2.60;2.50;;;;;;;-3.40;72.75;101107.94;4959374;28;20114;-69
2024/01/09 07:07:12;;;;;;;2.40;2.30;;;;;;;-3.40;71.68;101105.34;4948865;29;20019;-70
2024/01/09 07:09:38;;;;;;;2.30;2.20;;;;;;;-3.97;71.61;101009.44;4968310;28;20035;-70
2024/01/09 07:12:04;;;;;;;2.40;2.30;;;;;;;-3.44;72.68;101111.22;4954342;28;20049;-69
2024/01/09 07:14:29;;;;;;;2.40;2.30;;;;;;;-3.44;71.81;101105.16;4949175;28;20084;-69
2024/01/09 07:16:55;;;;;;;2.50;2.40;;;;;;;-3.41;72.13;101098.34;4950097;28;20037;-69
2024/01/09 07:19:20;;;;;;;2.42;2.33;;;;;;;-3.41;71.13;101100.94;4966690;28;20034;-69
2024/01/09 07:21:46;;;;;;;2.60;2.50;;;;;;;-3.70;71.73;101054.72;4956205;28;20039;-70
2024/01/09 07:24:11;;;;;;;2.50;2.40;;;;;;;-3.36;71.72;101102.00;4949504;28;20029;-69
2024/01/09 07:26:41;;;;;;;2.30;2.20;;;;;;;-3.39;71.20;101114.91;4949708;29;20028;-69
2024/01/09 07:29:06;;;;;;;2.40;2.30;;;;;;;-3.66;72.05;101061.81;4966395;28;20037;-69
2024/01/09 07:31:32;;;;;;;2.28;2.17;;;;;;;-3.37;72.07;101107.16;4964487;28;20470;-69
2024/01/09 07:33:57;;;;;;;2.45;2.35;;;;;;;-3.38;71.69;101110.59;4961355;28;20683;-69
2024/01/09 07:36:23;;;;;;;2.20;2.10;;;;;;;-3.39;70.99;101109.69;4960653;28;20030;-69
2024/01/09 07:38:48;;;;;;;2.40;2.30;;;;;;;-3.31;71.70;101117.84;4958676;28;20030;-69
2024/01/09 07:41:17;;;;;;;2.45;2.35;;;;;;;-3.34;70.69;101118.56;4968610;28;20403;-69
2024/01/09 07:43:43;;;;;;;2.50;2.40;;;;;;;-3.26;71.38;101114.56;4968509;28;20054;-69
2024/01/09 07:46:10;;;;;;;2.40;2.30;;;;;;;-3.28;71.07;101113.59;4954434;28;20678;-69
2024/01/09 07:48:35;;;;;;;2.40;2.30;;;;;;;-3.48;71.12;101066.84;4951711;28;20045;-69
2024/01/09 07:51:01;;;;;;;2.50;2.40;;;;;;;-3.19;71.71;101118.28;4970185;28;20058;-67
2024/01/09 07:53:27;;;;;;;2.33;2.22;;;;;;;-3.10;71.61;101118.66;4952529;28;20026;-69
2024/01/09 07:55:53;;;;;;;2.50;2.40;;;;;;;-3.16;70.54;101121.91;4952606;28;20138;-67
2024/01/09 07:58:18;;;;;;;2.50;2.40;;;;;;;-3.16;70.39;101129.72;4946133;29;20447;-69
2024/01/09 08:00:45;;;;;;;2.50;2.40;;;;;;;-3.38;70.14;101090.69;4939979;29;20047;-70
2024/01/09 08:03:10;;;;;;;2.50;2.40;;;;;;;-3.00;69.70;101132.06;4932367;29;20035;-70
2024/01/09 08:05:36;;;;;;;2.40;2.30;;;;;;;-2.90;69.04;101126.41;4949519;28;20038;-69
2024/01/09 08:08:02;;;;;;;2.60;2.50;;;;;;;-2.58;69.66;101117.22;4931507;29;20031;-69
2024/01/09 08:10:28;;;;;;;2.40;2.30;;;;;;;-2.31;68.56;101117.34;4951900;29;20360;-69
2024/01/09 08:12:53;;;;;;;2.45;2.35;;;;;;;-2.52;66.76;101067.09;4948495;29;20027;-70
2024/01/09 08:15:18;;;;;;;2.30;2.20;;;;;;;-2.20;65.78;101116.88;4951068;29;20272;-70
2024/01/09 08:17:44;;;;;;;2.30;2.20;;;;;;;-2.14;64.84;101116.22;4950900;29;20031;-69
2024/01/09 08:20:10;;;;;;;2.20;2.10;;;;;;;-2.15;65.00;101115.34;4950279;29;20070;-69
2024/01/09 08:22:35;;;;;;;2.30;2.20;;;;;;;-2.24;64.86;101114.13;4949641;28;20038;-70
2024/01/09 08:25:01;;;;;;;2.47;2.38;;;;;;;-2.51;66.26;101067.13;4955569;28;20771;-69
2024/01/09 08:27:26;;;;;;;2.40;2.30;;;;;;;-2.16;66.05;101112.69;4945430;29;20043;-70
2024/01/09 08:29:52;;;;;;;2.40;2.30;;;;;;;-2.41;66.67;101058.81;4948024;29;20035;-70
2024/01/09 08:32:18;;;;;;;2.30;2.20;;;;;;;-2.02;64.95;101121.84;4925833;29;20034;-70
2024/01/09 08:34:43;;;;;;;2.40;2.30;;;;;;;-2.05;66.22;101116.53;4947477;28;20031;-70
2024/01/09 08:37:09;;;;;;;2.30;2.20;;;;;;;-2.02;64.50;101111.44;4949381;29;20031;-70
2024/01/09 08:39:34;;;;;;;2.20;2.10;;;;;;;-1.72;65.18;101120.31;4947402;29;20035;-70
2024/01/09 08:42:00;;;;;;;2.10;2.00;;;;;;;-1.64;63.84;101121.44;4950034;29;20070;-70
2024/01/09 08:44:27;;;;;;;2.30;2.20;;;;;;;-1.65;62.69;101124.91;4949609;29;20050;-70
2024/01/09 08:46:52;;;;;;;2.28;2.17;;;;;;;-1.51;62.93;101124.53;4951009;28;20131;-70
2024/01/09 08:49:18;;;;;;;2.17;2.08;;;;;;;-1.38;62.51;101120.56;4943711;29;20031;-70
2024/01/09 08:51:43;;;;;;;2.10;2.00;;;;;;;-1.36;62.25;101124.13;4948069;29;20041;-70
2024/01/09 08:54:09;;;;;;;2.00;1.90;;;;;;;-1.26;62.14;101117.47;4929716;29;20035;-69
2024/01/09 08:56:34;;;;;;;2.10;2.00;;;;;;;-1.23;61.95;101123.69;4948335;28;20642;-70
2024/01/09 08:59:00;;;;;;;2.10;2.00;;;;;;;0.13;60.51;101112.03;4944604;28;20038;-69
2024/01/09 09:01:26;;;;;;;2.00;1.90;;;;;;;2.08;54.99;101107.78;4937656;28;20080;-69
2024/01/09 09:03:51;;;;;;;1.70;1.70;;;;;;;3.09;49.34;101072.69;4950168;28;20114;-70
2024/01/09 09:06:18;;;;;;;1.70;1.70;;;;;;;3.81;47.68;101097.31;4928514;29;20175;-71
2024/01/09 09:08:43;;;;;;;1.40;1.40;;;;;;;4.02;46.45;101108.06;4921388;29;20039;-72
2024/01/09 09:11:16;;;;;;;1.40;1.40;;;;;;;4.58;45.03;101100.75;4946750;29;20027;-73
2024/01/09 09:13:42;;;;;;;1.30;1.30;;;;;;;5.30;43.25;101101.28;4920989;29;20031;-74
2024/01/09 09:16:08;;;;;;;1.20;1.20;;;;;;;5.35;42.49;101092.50;4928977;29;20047;-73
2024/01/09 09:18:34;;;;;;;1.20;1.20;;;;;;;5.82;41.99;101086.56;4938555;29;20031;-72
2024/01/09 09:21:01;;;;;;;1.15;1.15;;;;;;;6.32;41.14;101053.28;4948278;29;20094;-72
2024/01/09 09:23:26;;;;;;;1.00;1.00;;;;;;;6.26;39.87;101108.75;4942783;28;20031;-72
2024/01/09 09:25:52;;;;;;;1.10;1.10;;;;;;;6.08;40.33;101111.34;4918835;29;20574;-72
2024/01/09 09:28:17;;;;;;;1.00;1.00;;;;;;;6.21;40.45;101118.44;4946160;29;20093;-72
2024/01/09 09:30:43;;;;;;;1.10;1.10;;;;;;;6.67;39.71;101110.56;4945811;29;20487;-73
2024/01/09 09:33:08;;;;;;;1.10;1.10;;;;;;;6.63;40.33;101055.06;4942956;29;20039;-75
2024/01/09 09:35:35;;;;;;;1.10;1.10;;;;;;;7.56;37.83;101105.16;4946528;29;20031;-73
2024/01/09 09:38:01;;;;;;;1.10;1.10;;;;;;;7.72;37.69;101104.22;4929215;29;20039;-72
2024/01/09 09:40:27;;;;;;;0.80;0.80;;;;;;;7.25;38.80;101107.91;4948131;29;20100;-72
2024/01/09 09:42:57;;;;;;;1.00;1.00;;;;;;;7.28;38.15;101113.19;4942271;28;20099;-73
2024/01/09 09:45:25;;;;;;;1.10;1.10;;;;;;;7.86;37.74;101106.78;4930120;28;20134;-72
2024/01/09 09:47:53;;;;;;;1.00;1.00;;;;;;;8.02;37.31;101105.88;4943385;28;20038;-73
2024/01/09 09:50:19;;;;;;;0.90;0.90;;;;;;;7.87;37.49;101114.72;4928250;29;20425;-71
2024/01/09 09:52:44;;;;;;;1.10;1.10;;;;;;;7.95;36.67;101070.56;4942784;29;20035;-71
2024/01/09 09:55:10;;;;;;;1.08;1.08;;;;;;;7.75;37.73;101106.88;4946644;29;20042;-71
2024/01/09 09:57:36;;;;;;;1.10;1.10;;;;;;;7.98;36.76;101094.41;4946669;28;20415;-70
2024/01/09 10:00:04;;;;;;;1.02;1.02;;;;;;;8.03;36.83;101099.66;4959111;28;20034;-73
2024/01/09 10:02:33;;;;;;;1.08;1.08;;;;;;;7.44;37.10;101094.63;4962643;28;20471;-73
2024/01/09 10:05:06;;;;;;;1.00;1.00;;;;;;;7.88;37.89;101095.31;4965242;28;20030;-72
2024/01/09 10:07:37;;;;;;;1.20;1.20;;;;;;;8.49;36.90;101089.69;4967675;28;20459;-73
2024/01/09 10:10:06;;;;;;;1.10;1.10;;;;;;;8.33;36.06;101082.75;4953666;28;20228;-74
2024/01/09 10:12:33;;;;;;;1.00;1.00;;;;;;;8.43;37.13;101081.78;4933874;29;20050;-74
2024/01/09 10:15:21;;;;;;;0.98;0.98;;;;;;;8.48;35.85;101095.91;4949171;28;20035;-75
2024/01/09 10:17:47;;;;;;;1.00;1.00;;;;;;;8.04;36.27;101090.81;4963514;28;20125;-75
2024/01/09 10:20:12;;;;;;;1.00;1.00;;;;;;;8.50;36.93;101091.47;4967629;28;20027;-74
2024/01/09 10:22:38;;;;;;;0.90;0.90;;;;;;;8.40;36.30;101081.81;4966034;28;20035;-72
2024/01/09 10:25:05;;;;;;;1.00;1.00;;;;;;;8.69;36.19;101087.78;4958766;28;20027;-75
2024/01/09 10:27:33;;;;;;;0.85;0.85;;;;;;;8.23;36.87;101081.00;4968082;28;20081;-72
2024/01/09 10:29:59;;;;;;;0.98;0.98;;;;;;;8.53;36.41;101078.19;4948921;28;20026;-74
2024/01/09 10:32:24;;;;;;;1.00;1.00;;;;;;;8.27;36.11;101070.41;4962939;28;20101;-74
2024/01/09 10:34:50;;;;;;;1.00;1.00;;;;;;;7.65;36.71;101031.00;4955445;28;20050;-74
2024/01/09 10:37:15;;;;;;;0.98;0.98;;;;;;;7.69;36.36;101067.16;4968580;28;20431;-74
2024/01/09 10:39:42;;;;;;;1.20;1.20;;;;;;;8.07;37.03;101068.75;4965796;28;20072;-74
2024/01/09 10:42:12;;;;;;;0.90;0.90;;;;;;;8.20;36.33;101065.13;4968123;28;20038;-74
2024/01/09 10:44:40;;;;;;;0.88;0.88;;;;;;;8.12;37.13;101000.69;4958183;28;20550;-72
2024/01/09 10:47:13;;;;;;;0.88;0.88;;;;;;;8.71;35.70;101075.38;4947606;29;20078;-73
2024/01/09 10:49:40;;;;;;;0.80;0.80;;;;;;;8.83;35.98;101059.38;4951445;28;20736;-73
2024/01/09 10:52:11;;;;;;;0.90;0.90;;;;;;;9.04;35.76;101062.69;4964833;28;20031;-72
2024/01/09 10:54:39;;;;;;;0.88;0.88;;;;;;;8.67;35.77;101053.31;4965547;28;20034;-73
2024/01/09 10:57:05;;;;;;;1.00;1.00;;;;;;;8.27;36.43;101003.28;4957565;28;20058;-73
2024/01/09 10:59:30;;;;;;;0.90;0.90;;;;;;;8.84;36.49;101055.81;4968095;28;20158;-69
2024/01/09 11:01:56;;;;;;;0.90;0.90;;;;;;;9.00;36.16;101054.78;4966928;28;20113;-72
2024/01/09 11:04:21;;;;;;;0.90;0.90;;;;;;;9.19;35.13;101049.25;4970497;28;20053;-71
2024/01/09 11:06:48;;;;;;;0.80;0.80;;;;;;;8.78;36.19;101055.88;4971153;28;20173;-73
2024/01/09 11:09:18;;;;;;;0.90;0.90;;;;;;;8.90;36.13;101034.53;4946382;28;20041;-72
2024/01/09 11:11:46;;;;;;;0.90;0.90;;;;;;;9.09;35.89;101052.03;4971463;28;20033;-72
2024/01/09 11:14:13;;;;;;;0.90;0.90;;;;;;;8.90;35.62;101003.56;4963967;28;20043;-73
2024/01/09 11:16:43;;;;;;;0.70;0.70;;;;;;;8.92;35.67;101043.34;4973017;28;20037;-74
2024/01/09 11:19:13;;;;;;;0.90;0.90;;;;;;;8.92;36.19;101046.00;4952391;28;20035;-74
2024/01/09 11:21:38;;;;;;;0.82;0.82;;;;;;;8.11;35.79;100981.25;4969455;28;20030;-73